createdAt,value
2023-09-14T00:00:16.299Z,988.17
2023-09-14T00:01:16.394Z,988.16
2023-09-14T00:02:16.259Z,988.21
2023-09-14T00:03:16.558Z,988.20
2023-09-14T00:04:16.552Z,988.12
2023-09-14T00:05:16.422Z,988.15
2023-09-14T00:06:17.191Z,988.14
2023-09-14T00:07:17.143Z,988.20
2023-09-14T00:08:17.082Z,988.23
2023-09-14T00:09:16.198Z,988.20
2023-09-14T00:10:16.167Z,988.19
2023-09-14T00:11:16.150Z,988.17
2023-09-14T00:12:16.134Z,988.19
2023-09-14T00:13:16.124Z,988.13
2023-09-14T00:14:16.113Z,988.13
2023-09-14T00:15:16.120Z,988.12
2023-09-14T00:16:16.176Z,988.12
2023-09-14T00:17:16.088Z,988.12
2023-09-14T00:18:16.080Z,988.09
2023-09-14T00:19:16.117Z,988.09
2023-09-14T00:20:16.059Z,988.11
2023-09-14T00:21:16.086Z,988.13
2023-09-14T00:22:16.044Z,988.09
2023-09-14T00:23:16.008Z,988.11
2023-09-14T00:24:16.005Z,988.07
2023-09-14T00:25:16.000Z,988.08
2023-09-14T00:26:15.991Z,988.12
2023-09-14T00:27:16.692Z,988.10
2023-09-14T00:28:16.144Z,988.07
2023-09-14T00:29:15.942Z,988.11
2023-09-14T00:30:15.938Z,988.05
2023-09-14T00:31:15.958Z,988.10
2023-09-14T00:32:15.941Z,988.08
2023-09-14T00:33:15.945Z,987.99
2023-09-14T00:34:15.908Z,988.04
2023-09-14T00:35:15.876Z,988.01
2023-09-14T00:36:15.891Z,988.03
2023-09-14T00:37:15.857Z,988.00
2023-09-14T00:38:15.868Z,987.99
2023-09-14T00:39:15.827Z,988.02
2023-09-14T00:40:15.824Z,988.04
2023-09-14T00:41:15.817Z,988.06
2023-09-14T00:42:15.796Z,988.02
2023-09-14T00:43:15.802Z,988.08
2023-09-14T00:44:15.784Z,988.03
2023-09-14T00:45:15.777Z,988.02
2023-09-14T00:46:15.769Z,988.03
2023-09-14T00:47:16.579Z,988.03
2023-09-14T00:48:16.465Z,988.06
2023-09-14T00:49:16.648Z,988.04
2023-09-14T00:50:15.758Z,988.02
2023-09-14T00:51:15.690Z,988.04
2023-09-14T00:52:15.692Z,988.05
2023-09-14T00:53:15.678Z,988.05
2023-09-14T00:54:15.681Z,988.09
2023-09-14T00:55:15.651Z,988.04
2023-09-14T00:56:15.827Z,988.07
2023-09-14T00:57:15.625Z,988.02
2023-09-14T00:58:15.633Z,988.02
2023-09-14T00:59:15.625Z,988.01
2023-09-14T01:00:15.596Z,988.03
2023-09-14T01:01:15.838Z,988.05
2023-09-14T01:02:15.611Z,988.04
2023-09-14T01:03:15.817Z,988.05
2023-09-14T01:04:15.737Z,988.09
2023-09-14T01:05:15.558Z,988.08
2023-09-14T01:06:15.524Z,988.10
2023-09-14T01:07:16.479Z,988.07
2023-09-14T01:08:15.518Z,988.09
2023-09-14T01:09:15.520Z,988.11
2023-09-14T01:10:15.498Z,988.08
2023-09-14T01:11:15.491Z,988.06
2023-09-14T01:12:15.471Z,988.09
2023-09-14T01:13:15.453Z,988.06
2023-09-14T01:14:15.470Z,988.08
2023-09-14T01:15:15.432Z,988.03
2023-09-14T01:16:15.461Z,988.06
2023-09-14T01:17:15.411Z,988.08
2023-09-14T01:18:15.399Z,988.09
2023-09-14T01:19:15.390Z,988.10
2023-09-14T01:20:15.376Z,988.08
2023-09-14T01:21:15.390Z,988.10
2023-09-14T01:22:15.358Z,988.09
2023-09-14T01:23:15.336Z,988.09
2023-09-14T01:24:15.336Z,988.09
2023-09-14T01:25:15.346Z,988.06
2023-09-14T01:26:15.307Z,988.06
2023-09-14T01:27:15.301Z,988.08
2023-09-14T01:28:16.248Z,988.06
2023-09-14T01:29:16.143Z,988.08
2023-09-14T01:30:15.312Z,988.07
2023-09-14T01:31:15.255Z,988.05
2023-09-14T01:32:15.249Z,988.08
2023-09-14T01:33:15.237Z,988.08
2023-09-14T01:34:15.295Z,988.09
2023-09-14T01:35:15.222Z,988.12
2023-09-14T01:36:15.217Z,988.04
2023-09-14T01:37:15.264Z,988.06
2023-09-14T01:38:15.180Z,988.08
2023-09-14T01:39:15.201Z,988.04
2023-09-14T01:40:15.222Z,988.07
2023-09-14T01:41:15.174Z,988.09
2023-09-14T01:42:15.147Z,988.06
2023-09-14T01:43:15.122Z,988.06
2023-09-14T01:44:15.104Z,988.07
2023-09-14T01:45:15.100Z,988.04
2023-09-14T01:46:15.189Z,988.01
2023-09-14T01:47:15.067Z,988.05
2023-09-14T01:48:15.352Z,988.05
2023-09-14T01:49:15.983Z,988.03
2023-09-14T01:50:15.103Z,988.04
2023-09-14T01:51:15.036Z,988.08
2023-09-14T01:52:15.022Z,988.10
2023-09-14T01:53:15.012Z,988.11
2023-09-14T01:54:14.992Z,988.14
2023-09-14T01:55:14.987Z,988.15
2023-09-14T01:56:14.966Z,988.15
2023-09-14T01:57:14.955Z,988.19
2023-09-14T01:58:14.952Z,988.13
2023-09-14T01:59:14.953Z,988.16
2023-09-14T02:00:14.924Z,988.16
2023-09-14T02:01:14.957Z,988.18
2023-09-14T02:02:14.911Z,988.18
2023-09-14T02:03:14.889Z,988.24
2023-09-14T02:04:14.921Z,988.16
2023-09-14T02:05:14.942Z,988.21
2023-09-14T02:06:15.061Z,988.19
2023-09-14T02:07:14.855Z,988.11
2023-09-14T02:08:14.840Z,988.19
2023-09-14T02:09:15.628Z,988.23
2023-09-14T02:10:15.759Z,988.20
2023-09-14T02:11:14.870Z,988.16
2023-09-14T02:12:14.797Z,988.18
2023-09-14T02:13:14.801Z,988.16
2023-09-14T02:14:14.820Z,988.17
2023-09-14T02:15:14.790Z,988.14
2023-09-14T02:16:14.848Z,988.14
2023-09-14T02:17:14.749Z,988.19
2023-09-14T02:18:14.721Z,988.17
2023-09-14T02:19:14.796Z,988.23
2023-09-14T02:20:14.722Z,988.24
2023-09-14T02:21:14.715Z,988.22
2023-09-14T02:22:14.692Z,988.23
2023-09-14T02:23:14.670Z,988.23
2023-09-14T02:24:14.652Z,988.26
2023-09-14T02:25:14.682Z,988.28
2023-09-14T02:26:14.638Z,988.28
2023-09-14T02:27:14.638Z,988.31
2023-09-14T02:28:14.856Z,988.33
2023-09-14T02:29:14.608Z,988.31
2023-09-14T02:30:14.818Z,988.33
2023-09-14T02:31:14.671Z,988.32
2023-09-14T02:32:14.583Z,988.34
2023-09-14T02:33:14.609Z,988.33
2023-09-14T02:34:14.667Z,988.37
2023-09-14T02:35:14.530Z,988.35
2023-09-14T02:36:14.524Z,988.35
2023-09-14T02:37:14.536Z,988.36
2023-09-14T02:38:14.525Z,988.38
2023-09-14T02:39:14.511Z,988.37
2023-09-14T02:40:14.560Z,988.34
2023-09-14T02:41:14.475Z,988.37
2023-09-14T02:42:14.469Z,988.33
2023-09-14T02:43:14.534Z,988.33
2023-09-14T02:44:14.452Z,988.34
2023-09-14T02:45:14.468Z,988.33
2023-09-14T02:46:14.510Z,988.32
2023-09-14T02:47:14.415Z,988.30
2023-09-14T02:48:14.405Z,988.33
2023-09-14T02:49:14.413Z,988.35
2023-09-14T02:50:15.242Z,988.36
2023-09-14T02:51:14.399Z,988.32
2023-09-14T02:52:14.384Z,988.33
2023-09-14T02:53:14.341Z,988.32
2023-09-14T02:54:14.344Z,988.34
2023-09-14T02:55:14.381Z,988.30
2023-09-14T02:56:14.320Z,988.36
2023-09-14T02:57:14.294Z,988.32
2023-09-14T02:58:14.307Z,988.36
2023-09-14T02:59:14.274Z,988.33
2023-09-14T03:00:14.282Z,988.34
2023-09-14T03:01:14.345Z,988.38
2023-09-14T03:02:14.264Z,988.39
2023-09-14T03:03:14.309Z,988.37
2023-09-14T03:04:14.325Z,988.41
2023-09-14T03:05:14.247Z,988.37
2023-09-14T03:06:14.213Z,988.40
2023-09-14T03:07:14.252Z,988.39
2023-09-14T03:08:14.179Z,988.41
2023-09-14T03:09:14.174Z,988.43
2023-09-14T03:10:15.206Z,988.40
2023-09-14T03:11:14.181Z,988.43
2023-09-14T03:12:14.157Z,988.42
2023-09-14T03:13:14.154Z,988.40
2023-09-14T03:14:14.208Z,988.41
2023-09-14T03:15:14.107Z,988.40
2023-09-14T03:16:14.223Z,988.43
2023-09-14T03:17:15.537Z,988.39
2023-09-14T03:18:14.072Z,988.41
2023-09-14T03:19:14.090Z,988.41
2023-09-14T03:20:14.092Z,988.41
2023-09-14T03:21:14.044Z,988.39
2023-09-14T03:22:14.062Z,988.42
2023-09-14T03:23:14.033Z,988.46
2023-09-14T03:24:13.994Z,988.48
2023-09-14T03:25:14.012Z,988.43
2023-09-14T03:26:13.970Z,988.45
2023-09-14T03:27:13.987Z,988.46
2023-09-14T03:28:14.040Z,988.43
2023-09-14T03:29:13.944Z,988.44
2023-09-14T03:30:13.968Z,988.46
2023-09-14T03:31:14.621Z,988.49
2023-09-14T03:32:14.514Z,988.50
2023-09-14T03:33:13.918Z,988.45
2023-09-14T03:34:13.937Z,988.44
2023-09-14T03:35:13.878Z,988.42
2023-09-14T03:36:13.884Z,988.43
2023-09-14T03:37:13.901Z,988.44
2023-09-14T03:38:13.849Z,988.42
2023-09-14T03:39:13.904Z,988.41
2023-09-14T03:40:13.906Z,988.41
2023-09-14T03:41:13.823Z,988.43
2023-09-14T03:42:13.792Z,988.42
2023-09-14T03:43:13.838Z,988.43
2023-09-14T03:44:13.796Z,988.47
2023-09-14T03:45:13.826Z,988.49
2023-09-14T03:46:13.852Z,988.46
2023-09-14T03:47:13.751Z,988.46
2023-09-14T03:48:13.725Z,988.49
2023-09-14T03:49:13.763Z,988.47
2023-09-14T03:50:13.729Z,988.44
2023-09-14T03:51:13.856Z,988.49
2023-09-14T03:52:14.501Z,988.48
2023-09-14T03:53:13.707Z,988.51
2023-09-14T03:54:13.662Z,988.52
2023-09-14T03:55:13.712Z,988.50
2023-09-14T03:56:13.646Z,988.52
2023-09-14T03:57:13.740Z,988.52
2023-09-14T03:58:13.673Z,988.51
2023-09-14T03:59:13.614Z,988.49
2023-09-14T04:00:13.608Z,988.49
2023-09-14T04:01:13.616Z,988.46
2023-09-14T04:02:13.596Z,988.49
2023-09-14T04:03:13.649Z,988.50
2023-09-14T04:04:13.660Z,988.50
2023-09-14T04:05:13.537Z,988.54
2023-09-14T04:06:13.663Z,988.56
2023-09-14T04:07:14.196Z,988.54
2023-09-14T04:08:13.517Z,988.53
2023-09-14T04:09:13.499Z,988.53
2023-09-14T04:10:13.568Z,988.52
2023-09-14T04:11:13.493Z,988.53
2023-09-14T04:12:14.315Z,988.50
2023-09-14T04:13:14.239Z,988.51
2023-09-14T04:14:13.462Z,988.48
2023-09-14T04:15:13.426Z,988.51
2023-09-14T04:16:13.607Z,988.49
2023-09-14T04:17:13.408Z,988.50
2023-09-14T04:18:13.399Z,988.48
2023-09-14T04:19:13.411Z,988.52
2023-09-14T04:20:13.383Z,988.47
2023-09-14T04:21:13.355Z,988.49
2023-09-14T04:22:13.422Z,988.52
2023-09-14T04:23:13.349Z,988.47
2023-09-14T04:24:13.338Z,988.49
2023-09-14T04:25:13.397Z,988.47
2023-09-14T04:26:13.308Z,988.47
2023-09-14T04:27:13.318Z,988.47
2023-09-14T04:28:13.594Z,988.50
2023-09-14T04:29:13.276Z,988.48
2023-09-14T04:30:13.264Z,988.48
2023-09-14T04:31:13.350Z,988.49
2023-09-14T04:32:14.217Z,988.52
2023-09-14T04:33:13.404Z,988.47
2023-09-14T04:34:13.297Z,988.52
2023-09-14T04:35:13.220Z,988.55
2023-09-14T04:36:13.214Z,988.52
2023-09-14T04:37:13.203Z,988.54
2023-09-14T04:38:13.182Z,988.52
2023-09-14T04:39:13.163Z,988.49
2023-09-14T04:40:13.174Z,988.49
2023-09-14T04:41:13.135Z,988.50
2023-09-14T04:42:13.112Z,988.46
2023-09-14T04:43:13.153Z,988.50
2023-09-14T04:44:13.116Z,988.53
2023-09-14T04:45:13.135Z,988.53
2023-09-14T04:46:13.196Z,988.53
2023-09-14T04:47:13.095Z,988.53
2023-09-14T04:48:13.096Z,988.57
2023-09-14T04:49:13.081Z,988.60
2023-09-14T04:50:13.031Z,988.57
2023-09-14T04:51:13.036Z,988.57
2023-09-14T04:52:13.276Z,988.57
2023-09-14T04:53:13.959Z,988.55
2023-09-14T04:54:13.033Z,988.58
2023-09-14T04:55:13.050Z,988.56
2023-09-14T04:56:12.973Z,988.51
2023-09-14T04:57:12.946Z,988.57
2023-09-14T04:58:12.999Z,988.59
2023-09-14T04:59:12.960Z,988.61
2023-09-14T05:00:12.933Z,988.61
2023-09-14T05:01:13.004Z,988.57
2023-09-14T05:02:12.896Z,988.61
2023-09-14T05:03:12.879Z,988.63
2023-09-14T05:04:12.993Z,988.65
2023-09-14T05:05:12.850Z,988.66
2023-09-14T05:06:12.848Z,988.63
2023-09-14T05:07:12.894Z,988.61
2023-09-14T05:08:12.806Z,988.60
2023-09-14T05:09:12.811Z,988.56
2023-09-14T05:10:12.821Z,988.58
2023-09-14T05:11:12.776Z,988.59
2023-09-14T05:12:12.792Z,988.59
2023-09-14T05:13:13.641Z,988.57
2023-09-14T05:14:12.791Z,988.62
2023-09-14T05:15:12.803Z,988.56
2023-09-14T05:16:12.803Z,988.60
2023-09-14T05:17:12.720Z,988.58
2023-09-14T05:18:12.734Z,988.57
2023-09-14T05:19:12.749Z,988.58
2023-09-14T05:20:12.694Z,988.56
2023-09-14T05:21:12.692Z,988.54
2023-09-14T05:22:12.693Z,988.56
2023-09-14T05:23:12.668Z,988.58
2023-09-14T05:24:12.654Z,988.59
2023-09-14T05:25:12.721Z,988.63
2023-09-14T05:26:12.616Z,988.64
2023-09-14T05:27:12.629Z,988.63
2023-09-14T05:28:12.681Z,988.68
2023-09-14T05:29:12.602Z,988.66
2023-09-14T05:30:12.622Z,988.64
2023-09-14T05:31:12.740Z,988.68
2023-09-14T05:32:12.553Z,988.69
2023-09-14T05:33:12.774Z,988.69
2023-09-14T05:34:12.624Z,988.71
2023-09-14T05:35:13.246Z,988.69
2023-09-14T05:36:12.524Z,988.71
2023-09-14T05:37:12.566Z,988.71
2023-09-14T05:38:12.519Z,988.72
2023-09-14T05:39:12.483Z,988.71
2023-09-14T05:40:13.618Z,988.72
2023-09-14T05:41:12.461Z,988.77
2023-09-14T05:42:12.458Z,988.74
2023-09-14T05:43:12.584Z,988.77
2023-09-14T05:44:12.417Z,988.76
2023-09-14T05:45:12.410Z,988.78
2023-09-14T05:46:13.328Z,988.79
2023-09-14T05:47:12.454Z,988.80
2023-09-14T05:48:12.449Z,988.77
2023-09-14T05:49:12.424Z,988.79
2023-09-14T05:50:12.354Z,988.80
2023-09-14T05:51:12.341Z,988.74
2023-09-14T05:52:12.372Z,988.78
2023-09-14T05:53:12.340Z,988.76
2023-09-14T05:54:12.430Z,988.77
2023-09-14T05:55:12.368Z,988.74
2023-09-14T05:56:12.360Z,988.78
2023-09-14T05:57:12.294Z,988.79
2023-09-14T05:58:12.452Z,988.80
2023-09-14T05:59:25.541Z,988.80
2023-09-14T06:00:13.243Z,988.83
2023-09-14T06:01:12.266Z,988.81
2023-09-14T06:02:12.280Z,988.82
2023-09-14T06:03:12.266Z,988.81
2023-09-14T06:04:12.245Z,988.86
2023-09-14T06:05:22.737Z,988.83
2023-09-14T06:06:13.182Z,988.85
2023-09-14T06:07:12.242Z,988.86
2023-09-14T06:08:12.163Z,988.87
2023-09-14T06:09:12.134Z,988.85
2023-09-14T06:10:12.177Z,988.84
2023-09-14T06:11:12.118Z,988.83
2023-09-14T06:12:12.111Z,988.79
2023-09-14T06:13:12.191Z,988.81
2023-09-14T06:14:12.856Z,988.85
2023-09-14T06:15:12.084Z,988.83
2023-09-14T06:16:12.529Z,988.85
2023-09-14T06:17:12.050Z,988.84
2023-09-14T06:18:12.074Z,988.85
2023-09-14T06:19:12.045Z,988.87
2023-09-14T06:20:12.019Z,988.88
2023-09-14T06:21:12.012Z,988.89
2023-09-14T06:22:12.055Z,988.82
2023-09-14T06:23:11.990Z,988.89
2023-09-14T06:24:11.973Z,988.89
2023-09-14T06:25:12.009Z,988.89
2023-09-14T06:26:11.957Z,988.98
2023-09-14T06:27:11.938Z,988.95
2023-09-14T06:28:12.042Z,988.94
2023-09-14T06:29:11.913Z,989.00
2023-09-14T06:30:12.850Z,989.00
2023-09-14T06:31:11.953Z,989.01
2023-09-14T06:32:11.892Z,988.96
2023-09-14T06:33:11.947Z,988.96
2023-09-14T06:34:11.913Z,989.00
2023-09-14T06:35:12.593Z,988.99
2023-09-14T06:36:12.773Z,988.99
2023-09-14T06:37:11.927Z,989.00
2023-09-14T06:38:11.812Z,989.02
2023-09-14T06:39:11.806Z,989.03
2023-09-14T06:40:11.831Z,989.03
2023-09-14T06:41:11.784Z,989.04
2023-09-14T06:42:11.765Z,989.03
2023-09-14T06:43:11.828Z,989.06
2023-09-14T06:44:11.774Z,989.03
2023-09-14T06:45:11.781Z,989.07
2023-09-14T06:46:11.754Z,989.07
2023-09-14T06:47:11.747Z,989.10
2023-09-14T06:48:11.733Z,989.09
2023-09-14T06:49:11.720Z,989.05
2023-09-14T06:50:11.699Z,989.11
2023-09-14T06:51:11.669Z,989.10
2023-09-14T06:52:11.892Z,989.08
2023-09-14T06:53:11.643Z,989.12
2023-09-14T06:54:11.640Z,989.12
2023-09-14T06:55:12.518Z,989.06
2023-09-14T06:56:11.682Z,989.11
2023-09-14T06:57:11.702Z,989.12
2023-09-14T06:58:11.646Z,989.10
2023-09-14T06:59:11.581Z,989.08
2023-09-14T07:00:11.572Z,989.09
2023-09-14T07:01:11.603Z,989.08
2023-09-14T07:02:11.569Z,989.06
2023-09-14T07:03:11.930Z,989.07
2023-09-14T07:04:11.695Z,989.07
2023-09-14T07:05:11.515Z,989.08
2023-09-14T07:06:11.493Z,989.01
2023-09-14T07:07:11.542Z,989.03
2023-09-14T07:08:11.475Z,988.99
2023-09-14T07:09:11.481Z,989.03
2023-09-14T07:10:11.499Z,989.01
2023-09-14T07:11:11.436Z,989.02
2023-09-14T07:12:11.447Z,988.98
2023-09-14T07:13:11.446Z,989.01
2023-09-14T07:14:11.409Z,989.02
2023-09-14T07:15:11.433Z,988.98
2023-09-14T07:16:12.377Z,989.02
2023-09-14T07:17:11.488Z,989.00
2023-09-14T07:18:11.386Z,989.02
2023-09-14T07:19:11.420Z,989.04
2023-09-14T07:20:11.344Z,989.02
2023-09-14T07:21:11.329Z,989.03
2023-09-14T07:22:11.378Z,989.04
2023-09-14T07:23:11.305Z,989.10
2023-09-14T07:24:11.292Z,989.08
2023-09-14T07:25:11.298Z,989.12
2023-09-14T07:26:11.270Z,989.11
2023-09-14T07:27:11.244Z,989.09
2023-09-14T07:28:11.313Z,989.10
2023-09-14T07:29:11.228Z,989.11
2023-09-14T07:30:11.214Z,989.09
2023-09-14T07:31:11.317Z,989.09
2023-09-14T07:32:11.247Z,989.12
2023-09-14T07:33:11.196Z,989.12
2023-09-14T07:34:11.225Z,989.14
2023-09-14T07:35:11.174Z,989.16
2023-09-14T07:36:11.907Z,989.17
2023-09-14T07:37:12.135Z,989.19
2023-09-14T07:38:11.175Z,989.20
2023-09-14T07:39:11.141Z,989.22
2023-09-14T07:40:11.146Z,989.19
2023-09-14T07:41:11.095Z,989.21
2023-09-14T07:42:11.076Z,989.20
2023-09-14T07:43:11.164Z,989.22
2023-09-14T07:44:11.060Z,989.19
2023-09-14T07:45:11.053Z,989.19
2023-09-14T07:46:11.081Z,989.22
2023-09-14T07:47:11.045Z,989.21
2023-09-14T07:48:11.142Z,989.20
2023-09-14T07:49:11.034Z,989.24
2023-09-14T07:50:10.994Z,989.24
2023-09-14T07:51:10.990Z,989.24
2023-09-14T07:52:11.300Z,989.25
2023-09-14T07:53:10.970Z,989.23
2023-09-14T07:54:10.952Z,989.25
2023-09-14T07:55:11.027Z,989.27
2023-09-14T07:56:11.387Z,989.25
2023-09-14T07:57:11.627Z,989.25
2023-09-14T07:58:11.892Z,989.24
2023-09-14T07:59:10.905Z,989.19
2023-09-14T08:00:10.880Z,989.22
2023-09-14T08:01:10.898Z,989.22
2023-09-14T08:02:10.949Z,989.24
2023-09-14T08:03:10.991Z,989.28
2023-09-14T08:04:11.030Z,989.26
2023-09-14T08:05:10.907Z,989.24
2023-09-14T08:06:10.834Z,989.26
2023-09-14T08:07:10.828Z,989.24
2023-09-14T08:08:10.800Z,989.26
2023-09-14T08:09:10.778Z,989.29
2023-09-14T08:10:10.813Z,989.31
2023-09-14T08:11:10.746Z,989.32
2023-09-14T08:12:10.744Z,989.29
2023-09-14T08:13:10.767Z,989.35
2023-09-14T08:14:10.736Z,989.29
2023-09-14T08:15:10.708Z,989.30
2023-09-14T08:16:10.754Z,989.30
2023-09-14T08:17:11.532Z,989.31
2023-09-14T08:18:11.481Z,989.33
2023-09-14T08:19:10.724Z,989.29
2023-09-14T08:20:10.687Z,989.28
2023-09-14T08:21:10.644Z,989.26
2023-09-14T08:22:10.729Z,989.29
2023-09-14T08:23:10.614Z,989.32
2023-09-14T08:24:10.632Z,989.31
2023-09-14T08:25:10.637Z,989.32
2023-09-14T08:26:10.592Z,989.35
2023-09-14T08:27:10.591Z,989.34
2023-09-14T08:28:10.627Z,989.37
2023-09-14T08:29:10.558Z,989.37
2023-09-14T08:30:10.568Z,989.34
2023-09-14T08:31:10.652Z,989.34
2023-09-14T08:32:10.665Z,989.32
2023-09-14T08:33:13.579Z,989.34
2023-09-14T08:34:10.568Z,989.31
2023-09-14T08:35:10.503Z,989.30
2023-09-14T08:36:10.492Z,989.35
2023-09-14T08:37:10.559Z,989.34
2023-09-14T08:38:10.506Z,989.33
2023-09-14T08:39:16.513Z,989.38
2023-09-14T08:40:11.473Z,989.36
2023-09-14T08:41:10.464Z,989.37
2023-09-14T08:42:10.436Z,989.40
2023-09-14T08:43:10.461Z,989.41
2023-09-14T08:44:10.410Z,989.39
2023-09-14T08:45:10.398Z,989.43
2023-09-14T08:46:10.408Z,989.39
2023-09-14T08:47:10.380Z,989.45
2023-09-14T08:48:10.378Z,989.38
2023-09-14T08:49:10.430Z,989.39
2023-09-14T08:50:10.324Z,989.40
2023-09-14T08:51:10.314Z,989.37
2023-09-14T08:52:10.319Z,989.38
2023-09-14T08:53:10.293Z,989.40
2023-09-14T08:54:16.714Z,989.41
2023-09-14T08:55:11.308Z,989.42
2023-09-14T08:56:10.261Z,989.37
2023-09-14T08:57:10.780Z,989.36
2023-09-14T08:58:11.198Z,989.39
2023-09-14T08:59:10.738Z,989.42
2023-09-14T09:00:10.227Z,989.43
2023-09-14T09:01:10.252Z,989.41
2023-09-14T09:02:10.267Z,989.43
2023-09-14T09:03:10.209Z,989.40
2023-09-14T09:04:10.290Z,989.38
2023-09-14T09:05:10.311Z,989.39
2023-09-14T09:06:10.176Z,989.36
2023-09-14T09:07:10.204Z,989.33
2023-09-14T09:08:10.160Z,989.33
2023-09-14T09:09:10.110Z,989.31
2023-09-14T09:10:10.173Z,989.31
2023-09-14T09:11:10.094Z,989.29
2023-09-14T09:12:10.084Z,989.29
2023-09-14T09:13:10.126Z,989.23
2023-09-14T09:14:10.068Z,989.20
2023-09-14T09:15:10.037Z,989.23
2023-09-14T09:16:10.073Z,989.26
2023-09-14T09:17:10.078Z,989.22
2023-09-14T09:18:10.066Z,989.25
2023-09-14T09:19:10.295Z,989.27
2023-09-14T09:20:10.248Z,989.23
2023-09-14T09:21:09.980Z,989.22
2023-09-14T09:22:10.011Z,989.22
2023-09-14T09:23:09.973Z,989.25
2023-09-14T09:24:09.947Z,989.18
2023-09-14T09:25:09.982Z,989.19
2023-09-14T09:26:09.933Z,989.18
2023-09-14T09:27:09.930Z,989.20
2023-09-14T09:28:09.966Z,989.21
2023-09-14T09:29:09.880Z,989.26
2023-09-14T09:30:09.882Z,989.20
2023-09-14T09:31:09.968Z,989.22
2023-09-14T09:32:09.911Z,989.20
2023-09-14T09:33:09.874Z,989.22
2023-09-14T09:34:09.872Z,989.18
2023-09-14T09:35:09.815Z,989.18
2023-09-14T09:36:09.993Z,989.20
2023-09-14T09:37:09.838Z,989.25
2023-09-14T09:38:09.785Z,989.22
2023-09-14T09:39:09.784Z,989.29
2023-09-14T09:40:09.883Z,989.20
2023-09-14T09:41:09.757Z,989.23
2023-09-14T09:42:09.754Z,989.25
2023-09-14T09:43:09.784Z,989.25
2023-09-14T09:44:09.737Z,989.28
2023-09-14T09:45:09.697Z,989.26
2023-09-14T09:46:09.805Z,989.24
2023-09-14T09:47:09.706Z,989.25
2023-09-14T09:48:09.690Z,989.21
2023-09-14T09:49:09.675Z,989.26
2023-09-14T09:50:09.669Z,989.25
2023-09-14T09:51:09.642Z,989.24
2023-09-14T09:52:09.704Z,989.23
2023-09-14T09:53:09.690Z,989.18
2023-09-14T09:54:09.626Z,989.19
2023-09-14T09:55:09.635Z,989.15
2023-09-14T09:56:09.640Z,989.17
2023-09-14T09:57:09.594Z,989.15
2023-09-14T09:58:09.608Z,989.15
2023-09-14T09:59:09.559Z,989.18
2023-09-14T10:00:09.611Z,989.17
2023-09-14T10:01:09.717Z,989.19
2023-09-14T10:02:11.540Z,989.17
2023-09-14T10:03:09.592Z,989.16
2023-09-14T10:04:09.548Z,989.19
2023-09-14T10:05:09.498Z,989.17
2023-09-14T10:06:09.489Z,989.15
2023-09-14T10:07:09.486Z,989.14
2023-09-14T10:08:09.459Z,989.11
2023-09-14T10:09:09.439Z,989.09
2023-09-14T10:10:09.462Z,989.09
2023-09-14T10:11:09.417Z,989.14
2023-09-14T10:12:09.401Z,989.12
2023-09-14T10:13:09.421Z,989.18
2023-09-14T10:14:09.432Z,989.18
2023-09-14T10:15:09.381Z,989.16
2023-09-14T10:16:09.518Z,989.10
2023-09-14T10:17:09.541Z,989.09
2023-09-14T10:18:09.380Z,989.12
2023-09-14T10:19:09.416Z,989.06
2023-09-14T10:20:10.206Z,989.10
2023-09-14T10:21:10.157Z,989.05
2023-09-14T10:22:09.351Z,989.04
2023-09-14T10:23:09.283Z,989.06
2023-09-14T10:24:09.302Z,989.03
2023-09-14T10:25:09.300Z,989.06
2023-09-14T10:26:09.254Z,989.01
2023-09-14T10:27:09.227Z,989.02
2023-09-14T10:28:09.258Z,989.01
2023-09-14T10:29:09.256Z,989.00
2023-09-14T10:30:09.218Z,988.95
2023-09-14T10:31:09.326Z,988.96
2023-09-14T10:32:09.269Z,988.96
2023-09-14T10:33:09.177Z,988.97
2023-09-14T10:34:09.214Z,988.97
2023-09-14T10:35:09.165Z,988.99
2023-09-14T10:36:09.190Z,989.02
2023-09-14T10:37:09.217Z,989.02
2023-09-14T10:38:09.145Z,989.01
2023-09-14T10:39:09.103Z,989.04
2023-09-14T10:40:10.121Z,988.98
2023-09-14T10:41:09.114Z,988.97
2023-09-14T10:42:09.098Z,988.97
2023-09-14T10:43:09.182Z,988.97
2023-09-14T10:44:09.065Z,989.01
2023-09-14T10:45:09.042Z,988.97
2023-09-14T10:46:09.081Z,989.01
2023-09-14T10:47:09.148Z,988.99
2023-09-14T10:48:09.138Z,988.98
2023-09-14T10:49:09.042Z,989.01
2023-09-14T10:50:08.996Z,989.05
2023-09-14T10:51:08.977Z,989.04
2023-09-14T10:52:09.072Z,989.04
2023-09-14T10:53:08.953Z,989.03
2023-09-14T10:54:09.008Z,989.06
2023-09-14T10:55:08.976Z,989.04
2023-09-14T10:56:08.912Z,988.97
2023-09-14T10:57:08.913Z,988.97
2023-09-14T10:58:08.952Z,988.97
2023-09-14T10:59:08.893Z,988.98
2023-09-14T11:00:23.480Z,988.93
2023-09-14T11:02:20.738Z,988.95
2023-09-14T11:03:21.624Z,988.91
2023-09-14T11:04:09.949Z,988.93
2023-09-14T11:05:09.335Z,988.90
2023-09-14T11:06:09.083Z,988.89
2023-09-14T11:07:09.548Z,988.86
2023-09-14T11:08:08.970Z,988.87
2023-09-14T11:09:09.617Z,988.87
2023-09-14T11:10:09.306Z,988.88
2023-09-14T11:11:09.490Z,988.86
2023-09-14T11:12:09.900Z,988.88
2023-09-14T11:13:08.842Z,988.86
2023-09-14T11:14:09.376Z,988.84
2023-09-14T11:15:09.836Z,988.79
2023-09-14T11:16:09.068Z,988.77
2023-09-14T11:17:08.862Z,988.79
2023-09-14T11:18:09.836Z,988.80
2023-09-14T11:19:09.227Z,988.78
2023-09-14T11:20:09.635Z,988.78
2023-09-14T11:21:10.590Z,988.78
2023-09-14T11:22:10.416Z,988.77
2023-09-14T11:23:08.762Z,988.77
2023-09-14T11:24:09.649Z,988.75
2023-09-14T11:25:17.220Z,988.78
2023-09-14T11:26:19.478Z,988.77
2023-09-14T11:27:11.498Z,988.77
2023-09-14T11:28:08.712Z,988.79
2023-09-14T11:29:09.176Z,988.77
2023-09-14T11:30:08.770Z,988.81
2023-09-14T11:31:08.694Z,988.78
2023-09-14T11:32:11.618Z,988.79
2023-09-14T11:33:10.218Z,988.76
2023-09-14T11:34:10.306Z,988.73
2023-09-14T11:36:09.021Z,988.71
2023-09-14T11:37:13.231Z,988.75
2023-09-14T11:38:09.117Z,988.75
2023-09-14T11:39:09.516Z,988.74
2023-09-14T11:40:10.838Z,988.73
2023-09-14T11:41:24.192Z,988.77
2023-09-14T11:42:15.473Z,988.77
2023-09-14T11:43:11.978Z,988.79
2023-09-14T11:44:33.116Z,988.77
2023-09-14T11:45:12.678Z,988.78
2023-09-14T11:46:11.843Z,988.78
2023-09-14T11:47:12.494Z,988.81
2023-09-14T11:50:08.822Z,988.72
2023-09-14T11:51:08.452Z,988.74
2023-09-14T11:52:08.291Z,988.75
2023-09-14T11:53:08.394Z,988.72
2023-09-14T11:54:08.291Z,988.73
2023-09-14T11:55:08.264Z,988.69
2023-09-14T11:56:08.287Z,988.70
2023-09-14T11:57:08.242Z,988.73
2023-09-14T11:58:08.233Z,988.72
2023-09-14T11:59:08.228Z,988.73
2023-09-14T12:00:08.201Z,988.69
2023-09-14T12:01:08.262Z,988.70
2023-09-14T12:02:09.122Z,988.66
2023-09-14T12:03:09.067Z,988.65
2023-09-14T12:04:08.266Z,988.66
2023-09-14T12:05:08.162Z,988.69
2023-09-14T12:06:08.927Z,988.68
2023-09-14T12:07:08.133Z,988.64
2023-09-14T12:08:08.112Z,988.64
2023-09-14T12:09:20.560Z,988.66
2023-09-14T12:10:09.150Z,988.63
2023-09-14T12:11:08.081Z,988.63
2023-09-14T12:12:08.067Z,988.60
2023-09-14T12:13:08.059Z,988.60
2023-09-14T12:14:08.046Z,988.62
2023-09-14T12:15:08.039Z,988.58
2023-09-14T12:16:08.135Z,988.63
2023-09-14T12:17:08.066Z,988.59
2023-09-14T12:18:08.089Z,988.56
2023-09-14T12:19:08.036Z,988.58
2023-09-14T12:20:07.984Z,988.55
2023-09-14T12:21:07.985Z,988.53
2023-09-14T12:22:07.965Z,988.50
2023-09-14T12:23:08.900Z,988.54
2023-09-14T12:24:08.809Z,988.51
2023-09-14T12:25:07.944Z,988.52
2023-09-14T12:26:07.925Z,988.56
2023-09-14T12:27:08.004Z,988.50
2023-09-14T12:28:07.903Z,988.51
2023-09-14T12:29:07.912Z,988.51
2023-09-14T12:30:07.882Z,988.50
2023-09-14T12:31:08.189Z,988.52
2023-09-14T12:32:08.135Z,988.50